»·PEaware :: N495LM CYVR-KAVX

N495LM :: CYVR-KAVX

FLIGHT INFORMATION

Flight Status: Arrived
Operator: Privately registered:
United States
More flights under this callsign
Pilot: Tyler C. (11260)
Aircraft: Unknown
(TBM8)
More flights by this aircraft type
Origin: CYVR Vancouver Intl
Canada
Destination: KAVX Catalina
United States
More flights between these airports :: More routes between these airports
Route: +CYVR YVR LKV EHF LANDO LAX KAVX
File this flight plan on PilotEdge
Remarks:
Altitude:
(Current/Filed)
25,000ft
Speed:
(Current/Filed)
200kts
Departed: 09-May-16 10:09 AM
Arrived: 09-May-16 11:44 AM
Distance/Time
Traveled:
971nm/1:35
Distance/Time
To Go:
Arrived

Flight Plot

Page will automatically refresh every two minutes.


Map Options




Map Legend


Flown Route
Filed Route
Departure Airport
Arrival Airport
Navaid (VOR, NDB)
Fix

Horizontal Profiles

Position Reports

Time Latitude Longitude Heading Altitude Ground
Speed
09-May-16 10:07 39.031365 -119.776759 174 25020ft 308kts
09-May-16 10:08 38.950666 -119.760550 174 25018ft 309kts
09-May-16 10:09 38.869457 -119.744267 174 25018ft 309kts
09-May-16 10:10 38.788519 -119.728077 174 25018ft 309kts
09-May-16 10:11 38.704861 -119.711389 174 25021ft 309kts
09-May-16 10:12 38.621853 -119.694858 174 25042ft 309kts
09-May-16 10:13 38.537828 -119.678169 174 25057ft 309kts
09-May-16 10:14 38.456519 -119.662056 174 25055ft 310kts
09-May-16 10:15 38.382233 -119.647365 174 25043ft 309kts
09-May-16 10:16 38.301336 -119.631404 174 25041ft 309kts
09-May-16 10:17 38.221225 -119.615650 174 25040ft 308kts
09-May-16 10:18 38.139967 -119.599725 173 25059ft 306kts
09-May-16 10:19 38.058412 -119.583720 172 25078ft 303kts
09-May-16 10:20 37.978665 -119.568089 172 25081ft 302kts
09-May-16 10:21 37.897842 -119.552323 172 25082ft 302kts
09-May-16 10:22 37.817410 -119.536664 172 25079ft 302kts
09-May-16 10:23 37.736525 -119.520952 172 25082ft 302kts
09-May-16 10:24 37.658981 -119.505921 172 25084ft 302kts
09-May-16 10:25 37.627210 -119.499780 172 25086ft 302kts
09-May-16 10:26 37.545575 -119.483997 172 25065ft 308kts
09-May-16 10:27 37.462883 -119.468052 172 25029ft 311kts
09-May-16 10:28 37.388265 -119.453696 172 25012ft 310kts
09-May-16 10:29 37.307137 -119.438119 172 25019ft 310kts
09-May-16 10:30 37.238425 -119.424954 172 25018ft 310kts
09-May-16 10:31 37.145863 -119.407256 172 25000ft 310kts
09-May-16 10:32 37.079632 -119.394621 172 24999ft 310kts
09-May-16 10:33 36.984766 -119.376559 172 25000ft 310kts
09-May-16 10:34 36.916865 -119.363660 172 25000ft 310kts
09-May-16 10:35 36.823535 -119.345968 172 25001ft 310kts
09-May-16 10:36 36.755873 -119.333171 172 25003ft 310kts
09-May-16 10:37 36.675108 -119.317923 172 25007ft 310kts
09-May-16 10:38 36.607739 -119.305229 172 25011ft 310kts
09-May-16 10:39 36.527744 -119.290186 172 25012ft 311kts
09-May-16 10:40 36.450235 -119.275640 172 25013ft 311kts
09-May-16 10:41 36.375526 -119.261646 172 25007ft 310kts
09-May-16 10:42 36.292888 -119.246199 172 25007ft 310kts
09-May-16 10:43 36.211220 -119.230967 172 25008ft 310kts
09-May-16 10:44 36.128295 -119.215532 172 25009ft 310kts
09-May-16 10:45 36.047493 -119.200524 172 25009ft 310kts
09-May-16 10:46 35.968207 -119.185831 172 25010ft 310kts
09-May-16 10:47 35.885317 -119.170496 172 25010ft 310kts
09-May-16 10:48 35.805476 -119.155778 172 25011ft 310kts
09-May-16 10:49 35.725382 -119.141033 172 25011ft 310kts
09-May-16 10:50 35.645053 -119.126248 171 25011ft 308kts
09-May-16 10:51 35.565280 -119.111603 171 25011ft 308kts
09-May-16 10:52 35.505110 -119.062502 138 25013ft 305kts
09-May-16 10:53 35.448749 -119.009184 141 25012ft 306kts
09-May-16 10:54 35.391122 -118.956801 141 25007ft 305kts
09-May-16 10:55 35.328387 -118.900147 142 25008ft 305kts
09-May-16 10:56 35.270087 -118.847169 142 25007ft 305kts
09-May-16 10:57 35.205698 -118.789193 142 24999ft 305kts
09-May-16 10:58 35.142096 -118.732099 142 25028ft 304kts
09-May-16 10:59 35.079570 -118.676083 142 25052ft 304kts
09-May-16 11:00 35.014120 -118.617567 142 25063ft 305kts
09-May-16 11:01 34.947250 -118.580240 181 25073ft 303kts
09-May-16 11:02 34.866870 -118.573069 174 25063ft 305kts
09-May-16 11:03 34.788813 -118.561526 173 25025ft 307kts
09-May-16 11:04 34.706930 -118.549042 173 24986ft 307kts
09-May-16 11:05 34.628433 -118.537065 173 25020ft 306kts
09-May-16 11:06 34.550966 -118.525268 173 25053ft 307kts
09-May-16 11:07 34.478621 -118.514270 173 25058ft 308kts
09-May-16 11:08 34.413644 -118.504409 173 25059ft 308kts
09-May-16 11:09 34.413644 -118.504409 173 25059ft 308kts
09-May-16 11:10 34.278555 -118.483956 173 25037ft 308kts
09-May-16 11:11 34.218687 -118.474915 173 24822ft 315kts
09-May-16 11:12 34.160602 -118.466160 173 24369ft 323kts
09-May-16 11:13 34.102508 -118.457404 173 23997ft 324kts
09-May-16 11:14 34.044051 -118.448621 173 23245ft 332kts
09-May-16 11:15 33.983761 -118.435726 151 22338ft 336kts
09-May-16 11:16 33.929728 -118.402429 151 21466ft 338kts
09-May-16 11:17 33.875776 -118.369643 151 20445ft 338kts
09-May-16 11:18 33.821072 -118.336768 151 19406ft 336kts
09-May-16 11:19 33.763408 -118.302327 151 18307ft 334kts
09-May-16 11:20 33.701318 -118.265314 151 17109ft 328kts
09-May-16 11:21 33.654747 -118.211173 93 15788ft 309kts
09-May-16 11:22 33.687366 -118.160076 9 14551ft 294kts
09-May-16 11:23 33.733742 -118.175916 311 13488ft 298kts
09-May-16 11:24 33.733070 -118.236446 233 12381ft 314kts
09-May-16 11:25 33.680936 -118.278369 211 12040ft 290kts
09-May-16 11:26 33.627671 -118.309755 175 12025ft 276kts
09-May-16 11:27 33.572107 -118.268307 140 10839ft 294kts
09-May-16 11:28 33.567636 -118.199447 38 9470ft 278kts
09-May-16 11:29 33.623556 -118.208128 329 8203ft 267kts
09-May-16 11:30 33.667920 -118.238219 327 7911ft 246kts
09-May-16 11:31 33.673576 -118.286077 237 6906ft 270kts
09-May-16 11:32 33.626916 -118.352769 232 5458ft 263kts
09-May-16 11:33 33.594012 -118.400033 232 4923ft 216kts
09-May-16 11:34 33.564071 -118.441976 231 4612ft 191kts
09-May-16 11:35 33.532181 -118.483865 204 3973ft 179kts
09-May-16 11:36 33.489810 -118.469884 161 4007ft 174kts
09-May-16 11:37 33.448208 -118.451324 161 4008ft 173kts
09-May-16 11:38 33.410520 -118.431123 137 3315ft 178kts
09-May-16 11:39 33.418956 -118.377166 73 1921ft 138kts
09-May-16 11:40 33.400707 -118.356250 218 2001ft 127kts
09-May-16 11:41 33.403272 -118.391928 299 1767ft 135kts
09-May-16 11:42 33.403765 -118.418500 236 1557ft 64kts
09-May-16 11:43 33.403302 -118.415952 44 1549ft 0kts
09-May-16 11:44 33.403302 -118.415952 44 1549ft 0kts
09-May-16 11:45 33.403302 -118.415952 44 1549ft 0kts
09-May-16 11:46 33.403302 -118.415952 44 1549ft 0kts
09-May-16 11:47 33.403302 -118.415952 44 1549ft 0kts
09-May-16 11:48 33.403302 -118.415952 44 1549ft 0kts
09-May-16 11:49 33.403302 -118.415952 44 1549ft 0kts
09-May-16 11:50 33.403302 -118.415952 44 1549ft 0kts
09-May-16 11:51 33.403302 -118.415952 44 1549ft 0kts
09-May-16 11:52 33.403302 -118.415952 44 1549ft 0kts
09-May-16 11:53 33.403302 -118.415952 44 1549ft 0kts
09-May-16 11:54 33.403302 -118.415952 44 1549ft 0kts
09-May-16 11:55 33.403302 -118.415952 44 1549ft 0kts
09-May-16 11:56 33.403302 -118.415952 44 1549ft 0kts
09-May-16 11:57 33.403302 -118.415952 44 1549ft 0kts
09-May-16 11:58 33.403302 -118.415952 44 1549ft 0kts

Navigation Log

Ident Type
1. CYVR Airport
2. YVR Navaid
3. LKV Navaid
4. EHF Navaid
5. LANDO Fix
6. LAX Navaid
7. KAVX Airport